createdAt,value
2022-12-03T00:03:40.601Z,17.60535117056856
2022-12-03T00:10:10.786Z,22.036789297658864
2022-12-03T00:20:45.358Z,19.501672240802677
2022-12-03T00:34:45.147Z,20.645484949832777
2022-12-03T00:41:11.959Z,22.193979933110366
2022-12-03T00:47:39.241Z,21.090301003344482
2022-12-03T00:54:05.846Z,22.03344481605351
2022-12-03T01:00:33.081Z,20.100334448160535
2022-12-03T01:07:01.994Z,23.267558528428093
2022-12-03T01:20:36.463Z,24.809364548494983
2022-12-03T01:31:14.817Z,23.528428093645484
2022-12-03T01:37:42.889Z,25.006688963210703
2022-12-03T01:44:12.199Z,23.953177257525084
2022-12-03T01:54:00.365Z,28.438127090301002
2022-12-03T02:00:50.241Z,22.668896321070235
2022-12-03T02:13:17.547Z,23.648829431438127
2022-12-03T02:34:34.389Z,25.127090301003346
2022-12-03T02:45:30.212Z,27.729096989966557
2022-12-03T02:51:56.486Z,24.73913043478261
2022-12-03T03:03:33.718Z,27.29096989966555
2022-12-03T03:10:00.511Z,30.076923076923077
2022-12-03T03:23:07.117Z,29.859531772575252
2022-12-03T03:33:03.310Z,33.50501672240803
2022-12-03T03:39:59.195Z,31.94983277591973
2022-12-03T03:50:00.630Z,30.187290969899667
2022-12-03T03:58:26.039Z,30.505016722408026
2022-12-03T04:04:55.379Z,27.846153846153847
2022-12-03T04:11:24.928Z,30.585284280936456
2022-12-03T04:19:00.247Z,33.35117056856188
2022-12-03T04:25:28.506Z,31.54515050167224
2022-12-03T04:31:56.145Z,32.25752508361204
2022-12-03T04:44:27.714Z,32.67224080267559
2022-12-03T04:51:59.602Z,28.505016722408026
2022-12-03T04:58:28.443Z,32.468227424749166
2022-12-03T05:08:48.389Z,35.391304347826086
2022-12-03T05:18:29.911Z,31.130434782608695
2022-12-03T05:29:28.643Z,31.665551839464882
2022-12-03T05:41:58.206Z,32.84615384615385
2022-12-03T05:48:26.199Z,34.17725752508361
2022-12-03T05:54:56.829Z,33.1505016722408
2022-12-03T06:01:30.087Z,35.17056856187291
2022-12-03T06:22:42.161Z,37.9933110367893
2022-12-03T06:29:15.954Z,37.20401337792642
2022-12-03T06:35:47.964Z,35.10033444816054
2022-12-03T06:44:21.431Z,46.24414715719063
2022-12-03T06:57:12.778Z,40.81605351170568
2022-12-03T07:03:39.915Z,38.7056856187291
2022-12-03T07:10:45.456Z,41.59531772575251
2022-12-03T07:19:20.587Z,40.36789297658863
2022-12-03T07:26:04.895Z,43.986622073578594
2022-12-03T07:32:32.542Z,39.03678929765886
2022-12-03T07:39:00.437Z,40.25083612040134
2022-12-03T07:45:49.104Z,38.87959866220736
2022-12-03T07:52:17.696Z,41.23076923076923
2022-12-03T07:58:46.808Z,37.60535117056856
2022-12-03T08:07:31.306Z,40.78929765886288
2022-12-03T08:20:15.351Z,41.15719063545151
2022-12-03T08:28:08.172Z,40.819397993311036
2022-12-03T08:34:36.971Z,38.83946488294314
2022-12-03T08:48:33.088Z,39.19397993311037
2022-12-03T08:58:51.899Z,43.65551839464883
2022-12-03T09:11:23.815Z,42.48160535117057
2022-12-03T09:22:36.378Z,42.197324414715716
2022-12-03T09:29:11.861Z,43.12040133779264
2022-12-03T09:41:41.511Z,44.23076923076923
2022-12-03T09:50:27.532Z,45.60535117056856
2022-12-03T10:03:22.045Z,43.61538461538461
2022-12-03T10:13:54.643Z,40.55518394648829
2022-12-03T10:20:21.856Z,40.063545150501675
2022-12-03T10:28:55.049Z,40.0066889632107
2022-12-03T10:40:58.140Z,38.7123745819398
2022-12-03T10:59:44.433Z,41.68227424749164
2022-12-03T11:06:13.756Z,41.24414715719063
2022-12-03T11:12:42.803Z,40.39799331103679
2022-12-03T11:22:27.444Z,37.903010033444815
2022-12-03T11:28:54.638Z,37.735785953177256
2022-12-03T11:35:23.087Z,39.424749163879596
2022-12-03T11:41:53.969Z,35.67892976588629
2022-12-03T11:49:05.063Z,33.39464882943144
2022-12-03T11:55:33.970Z,29.076923076923077
2022-12-03T12:03:25.650Z,29.76923076923077
2022-12-03T12:09:55.335Z,29.187290969899667
2022-12-03T12:16:25.860Z,30.40802675585284
2022-12-03T12:22:54.246Z,31.501672240802677
2022-12-03T12:29:22.814Z,30.698996655518396
2022-12-03T12:41:12.447Z,25.31438127090301
2022-12-03T12:53:16.222Z,27.60535117056856
2022-12-03T12:59:45.201Z,27.792642140468228
2022-12-03T13:06:13.123Z,27.836120401337794
2022-12-03T13:12:41.380Z,27.62876254180602
2022-12-03T13:26:58.877Z,26.08026755852843
2022-12-03T13:44:42.054Z,24.71571906354515
2022-12-03T13:51:13.115Z,27.52173913043478
2022-12-03T14:00:09.919Z,28.782608695652176
2022-12-03T14:09:08.089Z,35.324414715719065
2022-12-03T14:15:39.446Z,28.150501672240804
2022-12-03T14:30:15.984Z,30.94983277591973
2022-12-03T14:37:01.933Z,32.89966555183946
2022-12-03T14:43:48.081Z,31.869565217391305
2022-12-03T14:50:17.114Z,36.37123745819398
2022-12-03T14:56:47.257Z,32.11036789297659
2022-12-03T15:06:46.992Z,36.44481605351171
2022-12-03T15:13:15.289Z,35.247491638795985
2022-12-03T15:19:43.673Z,37.013377926421406
2022-12-03T15:28:21.835Z,37.82943143812709
2022-12-03T15:40:39.720Z,40.635451505016725
2022-12-03T15:53:46.698Z,37.16053511705686
2022-12-03T16:00:12.905Z,39.15719063545151
2022-12-03T16:09:49.167Z,40.046822742474916
2022-12-03T16:17:56.490Z,41.919732441471574
2022-12-03T16:31:40.618Z,44.531772575250834
2022-12-03T16:39:18.310Z,42.08695652173913
2022-12-03T16:45:45.576Z,49.30100334448161
2022-12-03T16:53:01.038Z,50.85953177257525
2022-12-03T16:59:28.557Z,49.80602006688963
2022-12-03T17:07:15.775Z,49.90969899665552
2022-12-03T17:13:43.305Z,49.22742474916388
2022-12-03T17:20:11.106Z,53.51170568561873
2022-12-03T17:26:38.742Z,46.49832775919732
2022-12-03T17:34:05.148Z,56.21739130434783
2022-12-03T17:43:49.456Z,53.290969899665555
2022-12-03T17:51:00.739Z,58.04347826086956
2022-12-03T18:02:38.416Z,55.12709030100334
2022-12-03T18:09:53.879Z,48.84280936454849
2022-12-03T18:18:34.118Z,55.26086956521739
2022-12-03T18:31:03.766Z,53.64882943143812
2022-12-03T18:41:36.628Z,50.76923076923077
2022-12-03T18:58:10.313Z,51.12040133779264
2022-12-03T19:04:41.895Z,52.63210702341137
2022-12-03T19:11:09.381Z,48.357859531772576
2022-12-03T19:18:20.918Z,53.468227424749166
2022-12-03T19:24:48.078Z,50.54849498327759
2022-12-03T19:36:30.450Z,47.474916387959865
2022-12-03T19:42:57.258Z,50.39464882943144
2022-12-03T19:49:24.553Z,53.31438127090301
2022-12-03T19:59:39.975Z,50.59866220735786
2022-12-03T20:10:50.626Z,50.77257525083612
2022-12-03T20:21:19.265Z,46.17391304347826
2022-12-03T20:32:31.499Z,47.25083612040134
2022-12-03T20:45:41.177Z,47.34113712374582
2022-12-03T20:52:09.324Z,47.36120401337793
2022-12-03T21:02:56.437Z,52.324414715719065
2022-12-03T21:09:26.250Z,47.11705685618729
2022-12-03T21:15:54.804Z,47.51170568561873
2022-12-03T21:49:26.606Z,52.23411371237458
2022-12-03T22:00:32.849Z,57.97324414715719
2022-12-03T22:07:00.305Z,53.19063545150502
2022-12-03T22:19:46.167Z,56.55518394648829
2022-12-03T22:26:13.509Z,58.46488294314381
2022-12-03T22:32:41.193Z,62.49498327759197
2022-12-03T22:39:08.320Z,58.87290969899666
2022-12-03T22:54:51.454Z,54.39464882943144
2022-12-03T23:01:18.682Z,56.080267558528426
2022-12-03T23:10:19.647Z,52.2675585284281
2022-12-03T23:17:45.173Z,53.97658862876254
2022-12-03T23:29:09.027Z,50.30769230769231
2022-12-03T23:35:37.333Z,47.21070234113712
2022-12-03T23:52:23.039Z,49.792642140468224
2022-12-03T23:58:52.802Z,53.240802675585286
